createdAt,value
2018-12-20T00:00:43.488Z,2.35
2018-12-20T00:03:12.176Z,2.40
2018-12-20T00:05:40.800Z,2.37
2018-12-20T00:08:09.412Z,2.39
2018-12-20T00:10:38.214Z,2.30
2018-12-20T00:13:07.447Z,2.29
2018-12-20T00:15:35.941Z,2.35
2018-12-20T00:18:04.543Z,2.24
2018-12-20T00:20:33.216Z,2.14
2018-12-20T00:23:01.882Z,2.45
2018-12-20T00:25:30.637Z,2.26
2018-12-20T00:27:59.258Z,2.28
2018-12-20T00:30:27.887Z,2.22
2018-12-20T00:32:56.533Z,2.38
2018-12-20T00:35:25.170Z,2.26
2018-12-20T00:37:53.773Z,2.29
2018-12-20T00:40:22.284Z,2.37
2018-12-20T00:42:50.833Z,2.36
2018-12-20T00:45:19.453Z,2.36
2018-12-20T00:47:48.058Z,2.41
2018-12-20T00:50:16.726Z,2.60
2018-12-20T00:52:45.435Z,2.43
2018-12-20T00:55:14.180Z,2.60
2018-12-20T00:57:42.798Z,2.69
2018-12-20T01:00:12.009Z,2.49
2018-12-20T01:02:40.656Z,2.55
2018-12-20T01:05:09.163Z,2.67
2018-12-20T01:07:37.670Z,2.72
2018-12-20T01:10:07.168Z,2.70
2018-12-20T01:12:36.045Z,2.59
2018-12-20T01:15:05.714Z,2.59
2018-12-20T01:17:39.767Z,2.53
2018-12-20T01:20:10.867Z,2.70
2018-12-20T01:22:39.497Z,2.75
2018-12-20T01:25:08.126Z,2.70
2018-12-20T01:27:36.707Z,2.60
2018-12-20T01:30:07.251Z,2.60
2018-12-20T01:32:35.825Z,2.55
2018-12-20T01:35:04.580Z,2.60
2018-12-20T01:37:33.214Z,2.78
2018-12-20T01:40:01.686Z,2.58
2018-12-20T01:42:30.181Z,2.74
2018-12-20T01:44:58.790Z,2.77
2018-12-20T01:47:27.634Z,2.71
2018-12-20T01:49:56.654Z,2.77
2018-12-20T01:52:25.360Z,2.80
2018-12-20T01:54:54.618Z,2.84
2018-12-20T01:57:23.927Z,2.96
2018-12-20T01:59:53.346Z,2.92
2018-12-20T02:02:22.234Z,2.99
2018-12-20T02:04:50.971Z,2.93
2018-12-20T02:07:19.546Z,3.18
2018-12-20T02:09:48.448Z,3.05
2018-12-20T02:12:16.983Z,3.03
2018-12-20T02:14:45.611Z,3.05
2018-12-20T02:17:14.263Z,3.05
2018-12-20T02:19:42.819Z,3.11
2018-12-20T02:22:11.441Z,3.22
2018-12-20T02:24:39.995Z,3.14
2018-12-20T02:27:08.716Z,3.17
2018-12-20T02:29:38.107Z,2.98
2018-12-20T02:32:06.861Z,3.05
2018-12-20T02:34:35.425Z,3.20
2018-12-20T02:37:04.028Z,3.07
2018-12-20T02:39:32.618Z,3.07
2018-12-20T02:42:01.131Z,3.09
2018-12-20T02:44:29.745Z,3.04
2018-12-20T02:46:58.302Z,3.07
2018-12-20T02:49:26.780Z,3.22
2018-12-20T02:51:55.250Z,3.28
2018-12-20T02:54:23.890Z,3.23
2018-12-20T02:56:52.626Z,3.01
2018-12-20T02:59:21.152Z,2.99
2018-12-20T03:01:49.813Z,3.04
2018-12-20T03:04:18.327Z,3.16
2018-12-20T03:06:46.859Z,3.08
2018-12-20T03:09:15.536Z,3.10
2018-12-20T03:11:44.089Z,3.12
2018-12-20T03:14:12.680Z,3.07
2018-12-20T03:16:41.264Z,3.20
2018-12-20T03:19:10.473Z,3.18
2018-12-20T03:21:39.755Z,3.02
2018-12-20T03:24:08.312Z,3.02
2018-12-20T03:26:37.159Z,3.13
2018-12-20T03:29:06.077Z,3.06
2018-12-20T03:31:34.914Z,2.96
2018-12-20T03:34:03.532Z,2.98
2018-12-20T03:36:32.018Z,3.00
2018-12-20T03:39:00.489Z,2.94
2018-12-20T03:41:29.280Z,2.94
2018-12-20T03:43:57.826Z,2.96
2018-12-20T03:46:26.391Z,2.99
2018-12-20T03:48:55.218Z,2.99
2018-12-20T03:51:24.644Z,2.96
2018-12-20T03:53:54.174Z,3.02
2018-12-20T03:56:23.005Z,3.10
2018-12-20T03:58:51.691Z,3.12
2018-12-20T04:01:20.263Z,3.12
2018-12-20T04:03:49.521Z,3.09
2018-12-20T04:06:18.161Z,3.14
2018-12-20T04:08:46.641Z,3.21
2018-12-20T04:11:15.257Z,3.14
2018-12-20T04:13:44.139Z,3.21
2018-12-20T04:16:12.984Z,3.22
2018-12-20T04:18:41.492Z,3.23
2018-12-20T04:21:10.447Z,3.23
2018-12-20T04:23:39.107Z,3.35
2018-12-20T04:26:07.821Z,3.26
2018-12-20T04:28:36.395Z,3.27
2018-12-20T04:31:05.566Z,3.33
2018-12-20T04:33:34.154Z,3.25
2018-12-20T04:36:02.732Z,3.25
2018-12-20T04:38:31.441Z,3.37
2018-12-20T04:41:00.089Z,3.26
2018-12-20T04:43:29.270Z,3.25
2018-12-20T04:45:57.974Z,3.36
2018-12-20T04:48:26.665Z,3.33
2018-12-20T04:50:55.330Z,3.59
2018-12-20T04:53:24.805Z,3.32
2018-12-20T04:55:53.506Z,3.44
2018-12-20T04:58:22.769Z,3.42
2018-12-20T05:00:51.497Z,3.46
2018-12-20T05:03:20.002Z,3.47
2018-12-20T05:05:48.852Z,3.41
2018-12-20T05:08:17.483Z,3.30
2018-12-20T05:10:46.136Z,3.44
2018-12-20T05:13:15.030Z,3.42
2018-12-20T05:15:43.795Z,3.52
2018-12-20T05:18:12.447Z,3.60
2018-12-20T05:20:41.216Z,3.50
2018-12-20T05:23:09.933Z,3.45
2018-12-20T05:25:38.619Z,3.45
2018-12-20T05:28:07.368Z,3.43
2018-12-20T05:30:35.963Z,3.55
2018-12-20T05:33:04.506Z,3.42
2018-12-20T05:35:33.100Z,3.39
2018-12-20T05:38:01.697Z,3.52
2018-12-20T05:40:30.287Z,3.53
2018-12-20T05:42:58.836Z,3.43
2018-12-20T05:45:27.837Z,3.30
2018-12-20T05:47:56.675Z,3.39
2018-12-20T05:50:25.480Z,3.52
2018-12-20T05:52:54.400Z,3.49
2018-12-20T05:55:25.419Z,3.41
2018-12-20T05:57:57.055Z,3.41
2018-12-20T06:00:26.871Z,3.40
2018-12-20T06:02:56.922Z,3.41
2018-12-20T06:05:25.897Z,3.45
2018-12-20T06:07:54.718Z,3.54
2018-12-20T06:10:24.039Z,3.41
2018-12-20T06:12:52.978Z,3.45
2018-12-20T06:15:21.833Z,3.73
2018-12-20T06:17:50.926Z,3.67
2018-12-20T06:20:19.745Z,3.50
2018-12-20T06:22:48.605Z,3.52
2018-12-20T06:25:17.235Z,3.53
2018-12-20T06:27:46.376Z,3.56
2018-12-20T06:30:15.339Z,3.53
2018-12-20T06:32:43.989Z,3.52
2018-12-20T06:35:12.861Z,3.62
2018-12-20T06:37:41.580Z,3.66
2018-12-20T06:40:10.215Z,3.68
2018-12-20T06:42:38.881Z,3.61
2018-12-20T06:45:07.551Z,3.66
2018-12-20T06:47:36.386Z,3.71
2018-12-20T06:50:05.301Z,3.72
2018-12-20T06:52:34.187Z,3.75
2018-12-20T06:55:03.229Z,3.82
2018-12-20T06:57:31.826Z,3.77
2018-12-20T07:00:00.427Z,3.76
2018-12-20T07:02:28.879Z,3.79
2018-12-20T07:04:57.478Z,3.70
2018-12-20T07:07:26.385Z,3.67
2018-12-20T07:09:54.923Z,3.78
2018-12-20T07:12:23.490Z,3.73
2018-12-20T07:14:51.986Z,3.77
2018-12-20T07:17:20.479Z,3.78
2018-12-20T07:19:48.971Z,3.84
2018-12-20T07:22:18.087Z,3.95
2018-12-20T07:24:46.681Z,3.87
2018-12-20T07:27:15.150Z,3.83
2018-12-20T07:29:43.714Z,3.98
2018-12-20T07:32:12.594Z,3.90
2018-12-20T07:34:47.741Z,3.92
2018-12-20T07:37:11.702Z,3.92
2018-12-20T07:39:40.217Z,3.97
2018-12-20T07:42:08.798Z,4.05
2018-12-20T07:44:37.660Z,3.99
2018-12-20T07:47:06.394Z,4.03
2018-12-20T07:49:34.991Z,4.28
2018-12-20T07:52:04.004Z,4.14
2018-12-20T07:54:32.720Z,4.12
2018-12-20T07:57:01.667Z,4.23
2018-12-20T07:59:30.172Z,4.46
2018-12-20T08:01:58.645Z,4.35
2018-12-20T08:04:27.151Z,4.15
2018-12-20T08:06:56.565Z,4.29
2018-12-20T08:09:25.040Z,4.44
2018-12-20T08:11:53.550Z,4.55
2018-12-20T08:14:22.097Z,4.29
2018-12-20T08:16:50.759Z,4.44
2018-12-20T08:19:19.285Z,4.33
2018-12-20T08:21:47.769Z,4.24
2018-12-20T08:24:16.894Z,4.17
2018-12-20T08:26:45.418Z,4.43
2018-12-20T08:29:14.817Z,4.28
2018-12-20T08:31:43.419Z,4.26
2018-12-20T08:34:11.987Z,4.15
2018-12-20T08:36:40.489Z,3.97
2018-12-20T08:39:09.282Z,4.22
2018-12-20T08:41:37.769Z,4.17
2018-12-20T08:44:06.294Z,4.06
2018-12-20T08:46:34.950Z,4.22
2018-12-20T08:49:03.537Z,4.28
2018-12-20T08:51:32.044Z,4.08
2018-12-20T08:54:00.539Z,4.44
2018-12-20T08:56:29.059Z,4.26
2018-12-20T08:58:57.555Z,4.56
2018-12-20T09:01:26.245Z,4.59
2018-12-20T09:03:54.941Z,4.26
2018-12-20T09:06:24.550Z,4.42
2018-12-20T09:08:55.011Z,4.42
2018-12-20T09:11:23.553Z,4.36
2018-12-20T09:13:52.719Z,4.42
2018-12-20T09:16:21.241Z,4.65
2018-12-20T09:18:49.871Z,4.59
2018-12-20T09:21:18.467Z,4.70
2018-12-20T09:23:47.083Z,4.76
2018-12-20T09:26:15.539Z,4.78
2018-12-20T09:28:44.066Z,4.68
2018-12-20T09:31:13.328Z,4.94
2018-12-20T09:33:41.853Z,4.74
2018-12-20T09:36:10.447Z,5.00
2018-12-20T09:38:38.994Z,4.84
2018-12-20T09:41:07.877Z,5.06
2018-12-20T09:43:36.373Z,4.89
2018-12-20T09:46:04.907Z,4.85
2018-12-20T09:48:33.599Z,5.00
2018-12-20T09:51:02.173Z,5.03
2018-12-20T09:53:30.794Z,5.21
2018-12-20T09:55:59.418Z,4.97
2018-12-20T09:58:27.990Z,5.14
2018-12-20T10:00:57.112Z,4.99
2018-12-20T10:03:25.619Z,4.98
2018-12-20T10:05:54.299Z,5.09
2018-12-20T10:08:22.795Z,5.08
2018-12-20T10:10:51.488Z,5.11
2018-12-20T10:13:20.159Z,5.14
2018-12-20T10:15:48.646Z,5.17
2018-12-20T10:18:17.171Z,5.51
2018-12-20T10:20:45.738Z,5.15
2018-12-20T10:23:14.516Z,5.34
2018-12-20T10:25:43.026Z,5.19
2018-12-20T10:28:11.590Z,5.36
2018-12-20T10:30:40.109Z,5.46
2018-12-20T10:33:08.702Z,5.44
2018-12-20T10:35:37.163Z,5.73
2018-12-20T10:38:05.636Z,5.54
2018-12-20T10:40:35.162Z,5.68
2018-12-20T10:43:03.691Z,5.93
2018-12-20T10:45:32.787Z,6.12
2018-12-20T10:48:01.662Z,5.98
2018-12-20T10:50:30.257Z,6.17
2018-12-20T10:52:59.722Z,6.08
2018-12-20T10:55:28.775Z,6.12
2018-12-20T10:57:57.270Z,6.16
2018-12-20T11:00:25.737Z,6.33
2018-12-20T11:03:00.699Z,6.33
2018-12-20T11:05:34.626Z,6.50
2018-12-20T11:08:08.513Z,6.47
2018-12-20T11:10:37.700Z,6.06
2018-12-20T11:13:13.230Z,6.16
2018-12-20T11:15:41.831Z,6.26
2018-12-20T11:18:10.406Z,6.14
2018-12-20T11:20:39.393Z,6.41
2018-12-20T11:23:08.158Z,6.55
2018-12-20T11:25:36.990Z,6.69
2018-12-20T11:28:08.215Z,6.52
2018-12-20T11:30:37.829Z,6.63
2018-12-20T11:33:07.863Z,6.53
2018-12-20T11:35:36.353Z,6.37
2018-12-20T11:38:04.847Z,6.47
2018-12-20T11:40:33.559Z,6.34
2018-12-20T11:43:02.405Z,6.70
2018-12-20T11:45:30.851Z,6.45
2018-12-20T11:48:00.574Z,6.54
2018-12-20T11:50:31.132Z,6.79
2018-12-20T11:53:00.833Z,7.11
2018-12-20T11:55:29.442Z,7.25
2018-12-20T11:57:57.901Z,7.61
2018-12-20T12:00:26.370Z,7.38
2018-12-20T12:02:55.053Z,7.67
2018-12-20T12:05:23.522Z,8.08
2018-12-20T12:07:52.042Z,7.55
2018-12-20T12:10:20.583Z,7.66
2018-12-20T12:12:49.055Z,7.43
2018-12-20T12:15:17.560Z,7.07
2018-12-20T12:17:54.031Z,6.95
2018-12-20T12:20:17.042Z,7.12
2018-12-20T12:22:45.494Z,6.87
2018-12-20T12:25:14.097Z,6.62
2018-12-20T12:27:42.667Z,6.84
2018-12-20T12:30:11.311Z,6.55
2018-12-20T12:32:40.003Z,6.74
2018-12-20T12:35:08.520Z,6.67
2018-12-20T12:37:36.994Z,6.78
2018-12-20T12:40:06.529Z,6.76
2018-12-20T12:42:35.042Z,6.73
2018-12-20T12:45:03.723Z,6.94
2018-12-20T12:48:04.120Z,6.79
2018-12-20T12:50:32.837Z,6.74
2018-12-20T12:53:01.391Z,6.63
2018-12-20T12:55:29.964Z,6.51
2018-12-20T12:58:04.655Z,6.68
2018-12-20T13:00:29.166Z,6.62
2018-12-20T13:02:57.655Z,6.49
2018-12-20T13:05:26.116Z,6.46
2018-12-20T13:07:54.841Z,6.48
2018-12-20T13:10:23.857Z,6.76
2018-12-20T13:12:52.432Z,6.52
2018-12-20T13:15:20.938Z,6.48
2018-12-20T13:17:49.402Z,6.49
2018-12-20T13:20:17.915Z,6.37
2018-12-20T13:22:46.502Z,6.42
2018-12-20T13:25:15.095Z,6.37
2018-12-20T13:27:43.704Z,6.40
2018-12-20T13:30:13.211Z,6.27
2018-12-20T13:32:41.687Z,6.37
2018-12-20T13:35:10.307Z,6.34
2018-12-20T13:37:39.757Z,6.46
2018-12-20T13:40:09.048Z,6.35
2018-12-20T13:42:37.530Z,6.31
2018-12-20T13:45:06.505Z,6.16
2018-12-20T13:47:35.170Z,6.21
2018-12-20T13:50:03.818Z,6.20
2018-12-20T13:52:33.889Z,6.26
2018-12-20T13:55:02.483Z,6.21
2018-12-20T13:57:30.965Z,6.29
2018-12-20T13:59:59.510Z,6.25
2018-12-20T14:02:28.095Z,6.20
2018-12-20T14:04:56.783Z,6.35
2018-12-20T14:07:25.273Z,6.19
2018-12-20T14:09:54.358Z,6.21
2018-12-20T14:12:22.817Z,6.28
2018-12-20T14:14:51.270Z,6.28
2018-12-20T14:17:19.755Z,6.19
2018-12-20T14:19:48.238Z,6.22
2018-12-20T14:22:16.842Z,6.15
2018-12-20T14:24:45.297Z,5.97
2018-12-20T14:27:13.881Z,5.95
2018-12-20T14:29:42.385Z,5.85
2018-12-20T14:32:11.018Z,5.87
2018-12-20T14:34:39.549Z,5.65
2018-12-20T14:37:08.014Z,5.71
2018-12-20T14:39:37.261Z,5.71
2018-12-20T14:42:05.741Z,5.55
2018-12-20T14:44:34.612Z,5.47
2018-12-20T14:47:03.097Z,5.48
2018-12-20T14:49:31.615Z,5.47
2018-12-20T14:52:00.108Z,5.60
2018-12-20T14:54:28.662Z,5.65
2018-12-20T14:56:57.182Z,5.55
2018-12-20T14:59:27.577Z,5.54
2018-12-20T15:01:57.086Z,5.50
2018-12-20T15:04:25.880Z,5.57
2018-12-20T15:06:54.440Z,5.58
2018-12-20T15:09:23.073Z,5.68
2018-12-20T15:11:51.592Z,5.68
2018-12-20T15:14:20.193Z,5.58
2018-12-20T15:16:48.784Z,5.50
2018-12-20T15:19:17.482Z,5.60
2018-12-20T15:21:46.037Z,5.55
2018-12-20T15:24:15.171Z,5.71
2018-12-20T15:26:43.666Z,5.53
2018-12-20T15:29:12.146Z,5.46
2018-12-20T15:31:40.690Z,5.44
2018-12-20T15:34:09.155Z,5.47
2018-12-20T15:36:37.706Z,5.71
2018-12-20T15:39:07.881Z,5.52
2018-12-20T15:41:37.039Z,5.48
2018-12-20T15:44:05.508Z,5.54
2018-12-20T15:46:34.121Z,5.54
2018-12-20T15:49:03.994Z,5.48
2018-12-20T15:51:33.827Z,5.40
2018-12-20T15:54:02.395Z,5.62
2018-12-20T15:56:30.874Z,5.40
2018-12-20T15:58:59.438Z,5.55
2018-12-20T16:01:27.959Z,5.41
2018-12-20T16:03:56.521Z,5.53
2018-12-20T16:06:25.026Z,5.32
2018-12-20T16:08:53.594Z,5.34
2018-12-20T16:11:22.106Z,5.43
2018-12-20T16:13:50.534Z,5.62
2018-12-20T16:16:19.747Z,5.45
2018-12-20T16:18:48.261Z,5.44
2018-12-20T16:21:16.758Z,5.44
2018-12-20T16:23:45.207Z,5.34
2018-12-20T16:26:13.681Z,5.31
2018-12-20T16:28:42.237Z,5.29
2018-12-20T16:31:11.349Z,5.46
2018-12-20T16:33:39.802Z,5.35
2018-12-20T16:36:08.456Z,5.46
2018-12-20T16:38:37.009Z,5.33
2018-12-20T16:41:05.579Z,5.58
2018-12-20T16:43:34.139Z,5.42
2018-12-20T16:46:02.609Z,5.39
2018-12-20T16:48:31.215Z,5.46
2018-12-20T16:50:59.689Z,5.43
2018-12-20T16:53:28.202Z,5.42
2018-12-20T16:55:56.774Z,5.35
2018-12-20T16:58:26.329Z,5.40
2018-12-20T17:00:54.816Z,5.28
2018-12-20T17:03:23.367Z,5.53
2018-12-20T17:05:51.843Z,5.46
2018-12-20T17:08:20.340Z,5.56
2018-12-20T17:10:48.833Z,5.69
2018-12-20T17:13:17.306Z,5.54
2018-12-20T17:15:45.830Z,5.61
2018-12-20T17:18:14.325Z,5.52
2018-12-20T17:20:42.830Z,5.62
2018-12-20T17:23:11.310Z,5.52
2018-12-20T17:25:39.808Z,5.65
2018-12-20T17:28:09.006Z,5.51
2018-12-20T17:30:37.550Z,5.82
2018-12-20T17:33:06.017Z,5.57
2018-12-20T17:35:34.514Z,5.69
2018-12-20T17:38:02.999Z,5.73
2018-12-20T17:40:31.483Z,5.72
2018-12-20T17:43:00.178Z,5.77
2018-12-20T17:45:29.041Z,5.60
2018-12-20T17:47:57.496Z,5.78
2018-12-20T17:50:26.063Z,5.54
2018-12-20T17:52:54.525Z,5.49
2018-12-20T17:55:23.039Z,5.40
2018-12-20T17:57:51.519Z,5.39
2018-12-20T18:00:20.047Z,5.58
2018-12-20T18:02:48.498Z,5.37
2018-12-20T18:05:16.986Z,5.39
2018-12-20T18:07:45.457Z,5.57
2018-12-20T18:10:14.178Z,5.33
2018-12-20T18:12:42.725Z,5.42
2018-12-20T18:15:12.390Z,5.33
2018-12-20T18:17:40.925Z,5.32
2018-12-20T18:20:11.376Z,5.35
2018-12-20T18:22:40.714Z,5.51
2018-12-20T18:25:09.225Z,5.33
2018-12-20T18:27:37.753Z,5.29
2018-12-20T18:30:09.643Z,5.35
2018-12-20T18:32:38.209Z,5.57
2018-12-20T18:35:07.351Z,5.52
2018-12-20T18:37:35.874Z,5.54
2018-12-20T18:40:05.202Z,5.63
2018-12-20T18:42:33.655Z,5.64
2018-12-20T18:45:02.187Z,5.60
2018-12-20T18:47:30.742Z,5.73
2018-12-20T18:49:59.234Z,5.55
2018-12-20T18:52:28.628Z,5.42
2018-12-20T18:54:57.277Z,5.36
2018-12-20T18:57:25.799Z,5.45
2018-12-20T18:59:54.394Z,5.39
2018-12-20T19:02:23.986Z,5.35
2018-12-20T19:04:52.478Z,5.48
2018-12-20T19:07:21.407Z,5.38
2018-12-20T19:09:52.225Z,5.26
2018-12-20T19:12:25.331Z,5.31
2018-12-20T19:14:54.872Z,5.29
2018-12-20T19:17:23.434Z,5.28
2018-12-20T19:19:56.563Z,5.42
2018-12-20T19:22:23.413Z,5.40
2018-12-20T19:24:52.086Z,5.42
2018-12-20T19:27:20.566Z,5.46
2018-12-20T19:29:49.779Z,5.36
2018-12-20T19:32:18.360Z,5.37
2018-12-20T19:34:47.159Z,5.42
2018-12-20T19:37:15.676Z,5.52
2018-12-20T19:39:45.404Z,5.46
2018-12-20T19:42:16.415Z,5.55
2018-12-20T19:44:44.902Z,5.41
2018-12-20T19:47:13.453Z,5.55
2018-12-20T19:49:42.772Z,5.47
2018-12-20T19:52:11.243Z,5.50
2018-12-20T19:54:47.791Z,5.47
2018-12-20T19:57:10.330Z,5.45
2018-12-20T19:59:39.024Z,5.47
2018-12-20T20:02:07.653Z,5.53
2018-12-20T20:04:36.139Z,5.56
2018-12-20T20:07:04.798Z,5.38
2018-12-20T20:09:33.287Z,5.54
2018-12-20T20:12:01.801Z,5.73
2018-12-20T20:14:30.302Z,5.51
2018-12-20T20:16:58.982Z,5.49
2018-12-20T20:19:27.506Z,5.42
2018-12-20T20:21:55.966Z,5.56
2018-12-20T20:24:24.496Z,5.51
2018-12-20T20:26:53.162Z,5.51
2018-12-20T20:29:22.120Z,5.43
2018-12-20T20:31:50.971Z,5.45
2018-12-20T20:34:19.902Z,5.42
2018-12-20T20:36:48.691Z,5.46
2018-12-20T20:39:17.202Z,5.42
2018-12-20T20:41:48.442Z,5.39
2018-12-20T20:44:16.978Z,5.39
2018-12-20T20:46:45.477Z,5.47
2018-12-20T20:49:14.804Z,5.44
2018-12-20T20:51:44.365Z,5.37
2018-12-20T20:54:13.524Z,5.35
2018-12-20T20:56:42.318Z,5.34
2018-12-20T20:59:11.086Z,5.43
2018-12-20T21:01:39.580Z,5.55
2018-12-20T21:04:08.942Z,5.45
2018-12-20T21:06:37.579Z,5.40
2018-12-20T21:09:08.164Z,5.28
2018-12-20T21:11:36.625Z,5.25
2018-12-20T21:14:05.483Z,5.28
2018-12-20T21:16:33.994Z,5.48
2018-12-20T21:19:03.534Z,5.35
2018-12-20T21:21:32.608Z,5.45
2018-12-20T21:24:01.608Z,5.42
2018-12-20T21:26:30.401Z,5.34
2018-12-20T21:28:58.881Z,5.41
2018-12-20T21:31:28.105Z,5.40
2018-12-20T21:33:56.702Z,5.30
2018-12-20T21:36:25.530Z,5.33
2018-12-20T21:38:54.653Z,5.29
2018-12-20T21:41:23.212Z,5.50
2018-12-20T21:43:52.386Z,5.33
2018-12-20T21:46:21.485Z,5.33
2018-12-20T21:48:50.034Z,5.22
2018-12-20T21:51:19.254Z,5.30
2018-12-20T21:53:54.854Z,5.15
2018-12-20T21:56:18.998Z,5.11
2018-12-20T21:58:48.357Z,5.19
2018-12-20T22:01:16.957Z,5.13
2018-12-20T22:03:45.527Z,5.19
2018-12-20T22:06:14.274Z,5.21
2018-12-20T22:08:42.825Z,5.11
2018-12-20T22:11:11.692Z,5.29
2018-12-20T22:13:40.854Z,5.32
2018-12-20T22:16:09.647Z,5.30
2018-12-20T22:18:38.669Z,5.17
2018-12-20T22:21:07.339Z,5.21
2018-12-20T22:23:35.852Z,5.19
2018-12-20T22:26:04.362Z,5.26
2018-12-20T22:28:32.891Z,5.16
2018-12-20T22:31:01.382Z,5.21
2018-12-20T22:33:30.183Z,5.22
2018-12-20T22:35:58.802Z,5.28
2018-12-20T22:38:27.277Z,5.19
2018-12-20T22:40:55.865Z,5.20
2018-12-20T22:43:24.673Z,5.25
2018-12-20T22:45:53.134Z,5.14
2018-12-20T22:48:21.629Z,5.28
2018-12-20T22:50:55.898Z,5.43
2018-12-20T22:53:20.675Z,5.35
2018-12-20T22:55:49.397Z,5.29
2018-12-20T22:58:18.313Z,5.19
2018-12-20T23:00:54.112Z,5.25
2018-12-20T23:03:23.001Z,5.30
2018-12-20T23:05:51.570Z,5.40
2018-12-20T23:08:20.544Z,5.27
2018-12-20T23:10:49.001Z,5.31
2018-12-20T23:13:17.929Z,5.19
2018-12-20T23:15:46.414Z,5.24
2018-12-20T23:18:15.230Z,5.26
2018-12-20T23:20:43.702Z,5.22
2018-12-20T23:23:12.202Z,4.94
2018-12-20T23:25:40.802Z,4.81
2018-12-20T23:28:09.705Z,4.71
2018-12-20T23:30:38.174Z,4.78
2018-12-20T23:33:06.662Z,4.62
2018-12-20T23:35:35.110Z,4.64
2018-12-20T23:38:03.629Z,4.55
2018-12-20T23:40:32.113Z,4.51
2018-12-20T23:43:00.622Z,4.43
2018-12-20T23:45:29.076Z,4.52
2018-12-20T23:47:57.544Z,4.45
2018-12-20T23:50:26.029Z,4.58
2018-12-20T23:52:54.526Z,4.54
2018-12-20T23:55:23.770Z,4.48
2018-12-20T23:57:52.269Z,4.62
